Time;durP1;ratioP1;P1;durP2;ratioP2;P2;SDS_P1;SDS_P2;PMS_P1;PMS_P2;Temp;Humidity;BMP_temperature;BMP_pressure;BME280_temperature;BME280_humidity;BME280_pressure;Samples;Min_cycle;Max_cycle;Signal;HPM_P1;HPM_P2
2023/05/30 00:02:10;;;;;;;18.45;3.60;;;;;;;11.33;100.00;102527.91;5244453;28;20028;-70
2023/05/30 00:04:41;;;;;;;19.27;2.83;;;;;;;11.31;100.00;102540.66;5244342;28;20111;-70
2023/05/30 00:07:12;;;;;;;9.52;2.42;;;;;;;11.30;100.00;102544.31;5231759;28;20049;-70
2023/05/30 00:09:42;;;;;;;18.15;2.60;;;;;;;11.27;100.00;102544.56;5243148;28;20055;-71
2023/05/30 00:12:13;;;;;;;19.40;2.75;;;;;;;11.24;100.00;102546.66;5244488;28;20052;-70
2023/05/30 00:14:44;;;;;;;19.65;3.22;;;;;;;11.23;100.00;102536.91;5244611;28;20031;-70
2023/05/30 00:17:17;;;;;;;13.75;2.45;;;;;;;11.20;100.00;102538.03;5243878;28;20024;-70
2023/05/30 00:19:48;;;;;;;16.95;3.15;;;;;;;11.17;100.00;102546.31;5244215;28;20017;-71
2023/05/30 00:22:19;;;;;;;16.40;2.90;;;;;;;11.13;100.00;102547.56;5229374;28;20500;-70
2023/05/30 00:24:51;;;;;;;15.20;2.47;;;;;;;11.11;100.00;102555.75;5234315;28;20167;-70
2023/05/30 00:27:22;;;;;;;14.43;3.85;;;;;;;11.09;100.00;102563.09;5240569;28;20028;-70
2023/05/30 00:29:52;;;;;;;16.48;2.83;;;;;;;11.05;100.00;102558.97;5244591;28;20493;-70
2023/05/30 00:32:22;;;;;;;18.15;3.08;;;;;;;11.02;100.00;102566.41;5244000;28;20136;-70
2023/05/30 00:34:53;;;;;;;17.25;3.97;;;;;;;10.99;100.00;102561.28;5244011;28;20028;-70
2023/05/30 00:37:23;;;;;;;11.23;2.42;;;;;;;10.98;100.00;102557.75;5243448;28;20571;-70
2023/05/30 00:39:54;;;;;;;29.48;3.50;;;;;;;10.97;100.00;102561.41;5244023;28;20033;-70
2023/05/30 00:42:27;;;;;;;17.27;3.00;;;;;;;10.92;100.00;102554.72;5244347;28;20048;-70
2023/05/30 00:44:57;;;;;;;20.75;3.10;;;;;;;10.93;100.00;102561.78;5243890;28;20107;-70
2023/05/30 00:47:28;;;;;;;17.20;3.35;;;;;;;10.92;100.00;102565.47;5243517;28;20107;-70
2023/05/30 00:49:59;;;;;;;15.30;2.95;;;;;;;10.85;100.00;102565.13;5222462;28;20082;-71
2023/05/30 00:52:30;;;;;;;17.05;3.35;;;;;;;10.80;100.00;102557.44;5234531;28;20028;-70
2023/05/30 00:55:02;;;;;;;16.52;2.95;;;;;;;10.75;100.00;102558.81;5238775;28;20111;-70
2023/05/30 00:57:33;;;;;;;27.52;3.30;;;;;;;10.71;100.00;102554.66;5235142;28;20020;-70
2023/05/30 01:00:04;;;;;;;29.17;3.20;;;;;;;10.64;100.00;102551.59;5243797;28;20056;-70
2023/05/30 01:02:36;;;;;;;11.60;2.88;;;;;;;10.60;100.00;102560.91;5230998;28;20049;-70
2023/05/30 01:05:07;;;;;;;18.52;3.10;;;;;;;10.58;100.00;102561.00;5244499;28;20038;-70
2023/05/30 01:07:44;;;;;;;15.93;2.85;;;;;;;10.56;100.00;102568.34;5229939;28;20021;-71
2023/05/30 01:10:15;;;;;;;18.08;2.97;;;;;;;10.53;100.00;102570.41;5244226;28;20056;-70
2023/05/30 01:13:09;;;;;;;17.08;3.60;;;;;;;10.46;100.00;102570.06;5246448;28;20400;-70
2023/05/30 01:15:50;;;;;;;25.20;3.17;;;;;;;10.40;100.00;102567.88;5247669;28;20032;-70
2023/05/30 01:18:37;;;;;;;19.05;2.85;;;;;;;10.36;100.00;102574.47;5248391;28;20028;-70
2023/05/30 01:21:21;;;;;;;20.40;3.25;;;;;;;10.32;100.00;102573.84;5244564;28;20107;-70
2023/05/30 01:24:34;;;;;;;22.13;3.03;;;;;;;10.29;100.00;102579.47;5231844;28;20032;-70
2023/05/30 01:27:47;;;;;;;18.73;3.50;;;;;;;10.24;100.00;102576.31;5247409;28;20028;-70
2023/05/30 01:30:44;;;;;;;14.02;2.97;;;;;;;10.17;100.00;102575.03;5232753;28;20039;-70
2023/05/30 01:33:16;;;;;;;19.90;3.22;;;;;;;10.09;100.00;102573.00;5247930;28;20020;-70
2023/05/30 01:35:47;;;;;;;18.05;3.00;;;;;;;10.09;100.00;102580.16;5247124;28;20024;-70
2023/05/30 01:38:18;;;;;;;19.98;3.20;;;;;;;10.03;100.00;102576.13;5247783;28;20047;-70
2023/05/30 01:40:51;;;;;;;17.50;3.70;;;;;;;10.03;100.00;102577.97;5247642;28;20024;-70
2023/05/30 01:43:40;;;;;;;14.27;3.22;;;;;;;10.01;100.00;102571.88;5247545;28;20029;-70
2023/05/30 01:46:20;;;;;;;17.13;3.40;;;;;;;9.97;100.00;102573.09;5247050;28;20040;-70
2023/05/30 01:49:08;;;;;;;16.42;3.22;;;;;;;9.97;100.00;102573.94;5247469;28;20032;-70
2023/05/30 01:51:47;;;;;;;17.42;3.22;;;;;;;9.97;100.00;102576.63;5246080;28;20028;-70
2023/05/30 01:54:20;;;;;;;20.17;2.65;;;;;;;9.93;100.00;102579.66;5247503;28;20462;-70
2023/05/30 01:56:54;;;;;;;30.15;4.35;;;;;;;9.89;100.00;102576.38;5246735;28;20716;-70
2023/05/30 01:59:26;;;;;;;21.60;3.30;;;;;;;9.85;100.00;102581.13;5247191;28;20020;-70
2023/05/30 02:01:57;;;;;;;20.65;3.58;;;;;;;9.80;100.00;102577.94;5247145;28;20035;-70
2023/05/30 02:04:27;;;;;;;17.48;3.03;;;;;;;9.79;100.00;102588.78;5246926;28;20390;-70
2023/05/30 02:06:58;;;;;;;24.73;3.10;;;;;;;9.73;100.00;102592.78;5246544;28;20028;-70
2023/05/30 02:09:29;;;;;;;13.75;3.33;;;;;;;9.72;100.00;102593.75;5247059;28;20545;-70
2023/05/30 02:12:01;;;;;;;16.75;3.05;;;;;;;9.72;100.00;102591.06;5235523;28;20048;-70
2023/05/30 02:14:32;;;;;;;12.35;3.30;;;;;;;9.70;100.00;102589.50;5245286;28;20032;-70
2023/05/30 02:17:02;;;;;;;24.80;3.40;;;;;;;9.67;100.00;102597.75;5246429;28;20032;-70
2023/05/30 02:19:33;;;;;;;20.45;3.38;;;;;;;9.63;100.00;102586.41;5246998;28;20111;-70
2023/05/30 02:22:04;;;;;;;18.55;3.70;;;;;;;9.62;100.00;102587.38;5241623;28;20029;-70
2023/05/30 02:24:34;;;;;;;17.05;3.85;;;;;;;9.61;100.00;102583.00;5246268;28;20029;-70
2023/05/30 02:27:06;;;;;;;22.88;4.05;;;;;;;9.59;100.00;102585.81;5246084;28;20016;-70
2023/05/30 02:29:37;;;;;;;20.42;3.40;;;;;;;9.57;100.00;102592.25;5246806;28;20032;-70
2023/05/30 02:32:07;;;;;;;15.25;3.58;;;;;;;9.55;100.00;102592.38;5246911;28;20267;-70
2023/05/30 02:34:38;;;;;;;18.83;3.80;;;;;;;9.54;100.00;102596.03;5246855;28;20020;-70
2023/05/30 02:37:08;;;;;;;17.75;2.95;;;;;;;9.57;100.00;102605.66;5245751;28;20586;-70
2023/05/30 02:39:39;;;;;;;30.48;4.10;;;;;;;9.54;100.00;102604.06;5246815;28;20040;-70
2023/05/30 02:42:09;;;;;;;17.40;3.60;;;;;;;9.48;100.00;102599.16;5246864;28;20358;-70
2023/05/30 02:44:40;;;;;;;17.15;3.58;;;;;;;9.44;100.00;102597.69;5246807;28;20029;-70
2023/05/30 02:47:10;;;;;;;24.88;4.07;;;;;;;9.43;100.00;102595.13;5245792;28;20100;-70
2023/05/30 02:49:41;;;;;;;26.00;4.32;;;;;;;9.40;100.00;102600.72;5246128;28;20233;-70
2023/05/30 02:52:11;;;;;;;25.63;3.92;;;;;;;9.37;100.00;102596.44;5246608;28;20024;-69
2023/05/30 02:54:43;;;;;;;26.55;4.35;;;;;;;9.39;100.00;102602.56;5246517;28;20099;-70
2023/05/30 02:57:14;;;;;;;17.60;2.95;;;;;;;9.38;100.00;102598.13;5245770;28;20474;-70
2023/05/30 02:59:44;;;;;;;25.95;3.80;;;;;;;9.38;100.00;102608.84;5242716;28;20078;-70
2023/05/30 03:02:15;;;;;;;22.85;3.90;;;;;;;9.36;100.00;102605.44;5218482;28;20028;-70
2023/05/30 03:04:46;;;;;;;17.83;3.80;;;;;;;9.34;100.00;102618.13;5246081;28;20034;-70
2023/05/30 03:07:17;;;;;;;19.88;4.10;;;;;;;9.32;100.00;102602.13;5245780;28;20020;-70
2023/05/30 03:09:48;;;;;;;17.23;3.28;;;;;;;9.30;100.00;102624.66;5246060;28;20029;-70
2023/05/30 03:12:21;;;;;;;20.23;4.40;;;;;;;9.23;100.00;102605.50;5245938;28;20379;-70
2023/05/30 03:14:51;;;;;;;20.42;4.28;;;;;;;9.21;100.00;102607.47;5245844;28;20029;-70
2023/05/30 03:17:22;;;;;;;17.05;3.95;;;;;;;9.21;100.00;102606.59;5245288;28;20028;-70
2023/05/30 03:19:52;;;;;;;23.40;3.83;;;;;;;9.18;100.00;102607.66;5245992;28;20033;-70
2023/05/30 03:22:23;;;;;;;25.30;4.68;;;;;;;9.13;100.00;102609.84;5231317;28;20485;-70
2023/05/30 03:24:54;;;;;;;23.48;4.10;;;;;;;9.10;100.00;102614.59;5245609;28;20478;-70
2023/05/30 03:27:24;;;;;;;23.65;4.30;;;;;;;9.07;100.00;102613.81;5244772;28;20120;-70
2023/05/30 03:29:56;;;;;;;20.52;4.35;;;;;;;9.05;100.00;102621.13;5245695;28;20089;-70
2023/05/30 03:32:26;;;;;;;20.60;4.00;;;;;;;9.04;100.00;102630.13;5245761;28;20024;-70
2023/05/30 03:34:57;;;;;;;22.30;4.30;;;;;;;9.05;100.00;102621.13;5244871;28;20032;-70
2023/05/30 03:37:27;;;;;;;20.98;4.80;;;;;;;9.05;100.00;102628.31;5244746;28;20303;-70
2023/05/30 03:39:58;;;;;;;19.92;4.32;;;;;;;9.01;100.00;102625.00;5245188;28;20123;-70
2023/05/30 03:42:28;;;;;;;19.38;3.85;;;;;;;9.01;100.00;102635.69;5245738;28;20078;-70
2023/05/30 03:44:59;;;;;;;27.60;4.90;;;;;;;9.00;100.00;102635.81;5243041;28;20036;-70
2023/05/30 03:47:29;;;;;;;17.98;4.07;;;;;;;8.98;100.00;102633.25;5230774;28;20021;-70
2023/05/30 03:50:00;;;;;;;26.27;4.07;;;;;;;8.99;100.00;102643.00;5245028;28;20028;-70
2023/05/30 03:52:30;;;;;;;23.83;5.18;;;;;;;9.01;100.00;102638.38;5245067;28;20021;-70
2023/05/30 03:55:02;;;;;;;24.95;4.10;;;;;;;9.04;100.00;102642.66;5245240;28;20765;-70
2023/05/30 03:57:33;;;;;;;29.92;6.32;;;;;;;9.04;100.00;102648.03;5244611;28;20505;-70
2023/05/30 04:00:04;;;;;;;23.25;4.90;;;;;;;9.04;100.00;102646.19;5231622;28;20024;-70
2023/05/30 04:02:34;;;;;;;23.65;4.18;;;;;;;9.06;100.00;102640.72;5245009;28;20032;-70
2023/05/30 04:05:05;;;;;;;30.67;4.43;;;;;;;9.11;100.00;102648.41;5227029;28;20406;-70
2023/05/30 04:07:36;;;;;;;30.98;4.15;;;;;;;9.13;100.00;102646.47;5226661;28;20036;-70
2023/05/30 04:10:06;;;;;;;25.00;4.57;;;;;;;9.11;100.00;102645.75;5244800;28;20111;-70
2023/05/30 04:12:37;;;;;;;24.65;4.65;;;;;;;9.12;100.00;102645.63;5244799;28;20494;-70
2023/05/30 04:15:08;;;;;;;26.60;5.45;;;;;;;9.17;100.00;102645.28;5234366;28;20486;-69
2023/05/30 04:17:38;;;;;;;19.75;4.22;;;;;;;9.17;100.00;102645.28;5241237;28;20533;-69
2023/05/30 04:20:09;;;;;;;27.48;4.70;;;;;;;9.20;100.00;102639.72;5243303;28;20069;-70
2023/05/30 04:22:39;;;;;;;26.38;5.22;;;;;;;9.21;100.00;102650.31;5240577;28;20032;-69
2023/05/30 04:25:10;;;;;;;22.65;5.93;;;;;;;9.27;100.00;102651.66;5244554;28;20028;-69
2023/05/30 04:27:41;;;;;;;22.13;4.85;;;;;;;9.31;100.00;102645.97;5243799;28;20025;-70
2023/05/30 04:30:12;;;;;;;21.40;5.38;;;;;;;9.34;100.00;102647.59;5244471;28;20377;-70
2023/05/30 04:32:44;;;;;;;23.83;5.80;;;;;;;9.39;100.00;102656.13;5244828;28;20106;-70
2023/05/30 04:35:15;;;;;;;22.10;4.78;;;;;;;9.43;100.00;102646.88;5229734;28;20151;-70
2023/05/30 04:37:46;;;;;;;16.48;4.15;;;;;;;9.49;100.00;102653.63;5244063;28;20106;-70
2023/05/30 04:40:17;;;;;;;30.67;5.25;;;;;;;9.59;100.00;102660.84;5244164;28;20107;-70
2023/05/30 04:42:51;;;;;;;26.63;5.85;;;;;;;9.65;100.00;102653.31;5244845;28;20085;-70
2023/05/30 04:45:28;;;;;;;29.58;4.80;;;;;;;9.71;100.00;102658.19;5244194;28;20046;-70
2023/05/30 04:47:59;;;;;;;19.90;4.80;;;;;;;9.72;100.00;102663.44;5243988;28;20021;-70
2023/05/30 04:50:29;;;;;;;25.70;5.03;;;;;;;9.77;100.00;102663.09;5244334;28;20077;-70
2023/05/30 04:53:00;;;;;;;21.70;4.45;;;;;;;9.82;100.00;102655.53;5244448;28;20036;-70
2023/05/30 04:55:30;;;;;;;23.10;4.78;;;;;;;9.88;100.00;102657.75;5235022;28;20067;-70
2023/05/30 04:58:03;;;;;;;25.58;5.88;;;;;;;9.95;100.00;102655.47;5237073;28;20075;-70
2023/05/30 05:00:36;;;;;;;19.10;4.05;;;;;;;10.01;100.00;102655.84;5237312;28;20418;-70
2023/05/30 05:03:07;;;;;;;26.83;5.60;;;;;;;10.07;100.00;102655.38;5243838;28;20093;-70
2023/05/30 05:05:38;;;;;;;29.15;5.05;;;;;;;10.15;100.00;102668.19;5243587;28;20111;-70
2023/05/30 05:08:08;;;;;;;26.05;5.72;;;;;;;10.22;100.00;102657.84;5243978;28;20153;-70
2023/05/30 05:10:38;;;;;;;20.15;4.65;;;;;;;10.25;100.00;102650.44;5230885;28;20028;-70
2023/05/30 05:13:09;;;;;;;20.25;4.45;;;;;;;10.32;100.00;102651.66;5244337;28;20024;-70
2023/05/30 05:15:40;;;;;;;25.15;6.35;;;;;;;10.40;100.00;102645.69;5244046;28;20358;-70
2023/05/30 05:18:10;;;;;;;23.52;5.57;;;;;;;10.47;100.00;102651.41;5243181;28;20485;-70
2023/05/30 05:20:41;;;;;;;12.70;4.30;;;;;;;10.55;100.00;102663.25;5237895;28;20029;-70
2023/05/30 05:23:11;;;;;;;23.55;4.93;;;;;;;10.62;100.00;102659.09;5235550;28;20032;-70
2023/05/30 05:25:42;;;;;;;30.05;6.88;;;;;;;10.70;100.00;102660.34;5243325;28;20025;-70
2023/05/30 05:28:12;;;;;;;22.58;5.30;;;;;;;10.73;100.00;102671.66;5243895;28;20115;-70
2023/05/30 05:30:44;;;;;;;25.80;5.22;;;;;;;10.82;100.00;102667.38;5244098;28;20055;-70
2023/05/30 05:33:15;;;;;;;25.13;5.30;;;;;;;10.90;100.00;102667.63;5244333;28;20095;-70
2023/05/30 05:35:46;;;;;;;21.83;5.20;;;;;;;10.98;100.00;102667.00;5243182;28;20025;-70
2023/05/30 05:38:16;;;;;;;17.83;5.43;;;;;;;11.03;100.00;102662.97;5243943;28;20648;-70
2023/05/30 05:40:47;;;;;;;20.75;5.28;;;;;;;11.10;100.00;102672.25;5243862;28;20202;-70
2023/05/30 05:43:17;;;;;;;18.90;5.45;;;;;;;11.20;100.00;102660.75;5243958;28;20035;-70
2023/05/30 05:45:48;;;;;;;23.38;5.32;;;;;;;11.30;100.00;102662.53;5243289;28;20056;-71
2023/05/30 05:48:18;;;;;;;29.58;6.63;;;;;;;11.38;100.00;102660.06;5240674;28;20021;-70
2023/05/30 05:50:49;;;;;;;22.60;5.63;;;;;;;11.54;100.00;102659.63;5223238;28;20033;-71
2023/05/30 05:53:20;;;;;;;24.85;5.47;;;;;;;11.75;100.00;102665.06;5236326;28;20036;-71
2023/05/30 05:55:52;;;;;;;20.55;5.18;;;;;;;12.05;100.00;102663.44;5234324;28;20623;-71
2023/05/30 05:58:22;;;;;;;22.35;5.75;;;;;;;12.58;100.00;102672.22;5245409;28;20516;-71
2023/05/30 06:00:53;;;;;;;27.45;5.30;;;;;;;13.14;100.00;102679.78;5247601;28;20028;-71
2023/05/30 06:03:23;;;;;;;25.48;5.40;;;;;;;13.79;100.00;102676.59;5247392;28;20020;-71
2023/05/30 06:05:53;;;;;;;19.52;5.40;;;;;;;14.35;100.00;102675.78;5246465;28;20025;-71
2023/05/30 06:08:24;;;;;;;29.42;6.00;;;;;;;14.63;100.00;102680.28;5247555;28;20150;-71
2023/05/30 06:10:54;;;;;;;15.52;4.82;;;;;;;14.73;100.00;102683.78;5245612;28;20078;-71
2023/05/30 06:13:25;;;;;;;21.63;5.28;;;;;;;14.62;100.00;102678.59;5235631;28;20551;-71
2023/05/30 06:15:55;;;;;;;12.95;4.40;;;;;;;14.77;100.00;102676.25;5246037;28;20442;-71
2023/05/30 06:18:27;;;;;;;17.13;4.50;;;;;;;15.18;100.00;102684.84;5247376;28;20049;-71
2023/05/30 06:20:58;;;;;;;20.73;5.55;;;;;;;15.51;100.00;102684.19;5238926;28;20039;-71
2023/05/30 06:23:29;;;;;;;20.45;5.40;;;;;;;15.84;100.00;102683.66;5238900;28;20036;-71
2023/05/30 06:25:59;;;;;;;17.92;4.78;;;;;;;16.28;100.00;102679.09;5231450;28;20017;-71
2023/05/30 06:28:30;;;;;;;17.48;5.53;;;;;;;16.15;100.00;102679.50;5231715;28;20033;-71
2023/05/30 06:31:00;;;;;;;24.05;4.65;;;;;;;16.28;100.00;102684.50;5244745;28;20016;-71
2023/05/30 06:33:31;;;;;;;18.02;4.72;;;;;;;16.31;100.00;102685.03;5245096;28;20032;-71
2023/05/30 06:36:01;;;;;;;23.15;5.32;;;;;;;16.65;100.00;102689.63;5244091;28;20044;-71
2023/05/30 06:38:32;;;;;;;19.27;4.50;;;;;;;16.79;100.00;102690.91;5231655;28;20489;-71
2023/05/30 06:41:02;;;;;;;22.00;4.95;;;;;;;17.07;100.00;102695.09;5244077;28;20020;-71
2023/05/30 06:43:33;;;;;;;14.73;5.00;;;;;;;17.52;100.00;102695.69;5227658;28;20129;-71
2023/05/30 06:46:05;;;;;;;17.80;4.45;;;;;;;17.89;100.00;102697.13;5224527;28;20029;-71
2023/05/30 06:48:35;;;;;;;28.50;5.55;;;;;;;18.37;100.00;102690.78;5235772;28;20021;-71
2023/05/30 06:51:06;;;;;;;16.52;4.55;;;;;;;18.61;100.00;102698.88;5224437;28;20031;-71
2023/05/30 06:53:37;;;;;;;21.25;4.70;;;;;;;18.90;100.00;102692.00;5225222;28;20471;-71
2023/05/30 06:56:07;;;;;;;16.67;4.78;;;;;;;18.67;100.00;102701.91;5206789;28;20021;-71
2023/05/30 06:58:38;;;;;;;15.88;5.63;;;;;;;18.26;100.00;102705.56;5225107;28;20023;-71
2023/05/30 07:01:08;;;;;;;20.52;5.00;;;;;;;18.15;100.00;102708.66;5224486;28;20108;-72
2023/05/30 07:03:39;;;;;;;13.02;4.55;;;;;;;18.21;100.00;102715.25;5224413;28;20017;-72
2023/05/30 07:06:09;;;;;;;20.95;4.80;;;;;;;18.44;100.00;102710.81;5223839;28;20029;-71
2023/05/30 07:08:40;;;;;;;19.83;4.45;;;;;;;18.92;100.00;102708.13;5224019;28;20409;-72
2023/05/30 07:11:10;;;;;;;15.90;4.13;;;;;;;19.22;100.00;102710.03;5223622;28;20501;-71
2023/05/30 07:13:41;;;;;;;18.67;4.93;;;;;;;19.36;100.00;102711.16;5224189;28;20495;-72
2023/05/30 07:16:11;;;;;;;11.73;4.38;;;;;;;19.28;100.00;102716.66;5224014;28;20025;-72
2023/05/30 07:18:42;;;;;;;19.50;4.95;;;;;;;19.41;100.00;102706.88;5223625;28;20033;-72
2023/05/30 07:21:12;;;;;;;14.05;4.53;;;;;;;19.28;100.00;102712.06;5223775;28;20043;-72
2023/05/30 07:23:43;;;;;;;18.83;4.57;;;;;;;19.22;100.00;102711.91;5239629;28;20032;-72
2023/05/30 07:26:13;;;;;;;11.90;4.22;;;;;;;19.33;100.00;102717.81;5243177;28;20020;-72
2023/05/30 07:28:44;;;;;;;15.98;4.63;;;;;;;19.73;100.00;102715.88;5243699;28;20398;-72
2023/05/30 07:31:15;;;;;;;18.27;5.10;;;;;;;19.92;100.00;102714.53;5233800;28;20025;-72
2023/05/30 07:33:45;;;;;;;18.52;4.57;;;;;;;19.82;100.00;102709.31;5240158;28;20655;-72
2023/05/30 07:36:15;;;;;;;15.23;5.00;;;;;;;20.24;100.00;102716.13;5241982;28;20028;-72
2023/05/30 07:38:46;;;;;;;15.70;4.43;;;;;;;19.85;100.00;102716.28;5226993;28;20715;-72
2023/05/30 07:41:16;;;;;;;16.48;3.90;;;;;;;19.74;100.00;102714.84;5233347;28;20505;-72
2023/05/30 07:43:47;;;;;;;15.38;4.45;;;;;;;19.69;100.00;102714.56;5225862;28;20025;-72
2023/05/30 07:46:18;;;;;;;16.95;4.78;;;;;;;19.64;100.00;102712.38;5223220;28;20021;-72
2023/05/30 07:48:48;;;;;;;13.00;4.28;;;;;;;20.27;100.00;102701.28;5234177;28;20032;-72
2023/05/30 07:51:20;;;;;;;13.02;4.18;;;;;;;20.12;100.00;102712.97;5223771;28;20035;-71
2023/05/30 07:53:50;;;;;;;19.20;4.28;;;;;;;20.76;100.00;102717.13;5223000;28;20090;-72
2023/05/30 07:56:21;;;;;;;18.25;4.88;;;;;;;20.49;100.00;102710.47;5223147;28;20020;-72
2023/05/30 07:58:51;;;;;;;11.07;4.32;;;;;;;20.68;100.00;102708.03;5223093;28;20025;-72
2023/05/30 08:01:22;;;;;;;16.50;4.72;;;;;;;20.53;100.00;102709.88;5223046;28;20025;-72
2023/05/30 08:03:52;;;;;;;14.38;4.57;;;;;;;20.72;100.00;102711.19;5223139;28;20074;-72
2023/05/30 08:06:23;;;;;;;18.08;4.13;;;;;;;20.97;98.87;102719.09;5222499;28;20074;-72
2023/05/30 08:08:53;;;;;;;18.77;4.22;;;;;;;20.89;99.16;102712.72;5223049;28;20024;-72
2023/05/30 08:11:25;;;;;;;14.40;3.92;;;;;;;20.86;100.00;102701.31;5223021;28;20751;-72
2023/05/30 08:13:55;;;;;;;14.80;3.58;;;;;;;21.10;100.00;102697.44;5222969;28;20020;-72
2023/05/30 08:16:26;;;;;;;18.35;4.47;;;;;;;21.22;95.87;102709.53;5222777;28;20109;-72
2023/05/30 08:18:57;;;;;;;15.95;4.43;;;;;;;20.82;98.73;102706.31;5222665;28;20040;-72
2023/05/30 08:21:28;;;;;;;18.80;3.90;;;;;;;20.80;95.32;102707.53;5221971;28;20462;-72
2023/05/30 08:23:58;;;;;;;17.02;4.55;;;;;;;20.84;98.46;102700.69;5227492;28;20032;-72
2023/05/30 08:26:30;;;;;;;12.40;3.90;;;;;;;20.82;98.25;102697.28;5224511;28;20033;-72
2023/05/30 08:29:03;;;;;;;15.75;4.53;;;;;;;20.59;98.52;102700.13;5242850;28;20032;-72
2023/05/30 08:31:34;;;;;;;15.80;5.10;;;;;;;20.85;100.00;102697.75;5241675;28;20028;-72
2023/05/30 08:34:05;;;;;;;13.50;4.75;;;;;;;20.99;100.00;102690.59;5242376;28;20017;-72
2023/05/30 08:36:36;;;;;;;15.27;4.40;;;;;;;21.16;100.00;102692.06;5241971;28;20035;-72
2023/05/30 08:39:07;;;;;;;12.18;4.45;;;;;;;21.47;99.30;102682.75;5241578;28;20389;-72
2023/05/30 08:41:37;;;;;;;14.30;4.70;;;;;;;21.70;98.43;102688.88;5239794;28;20032;-72
2023/05/30 08:44:08;;;;;;;12.52;4.40;;;;;;;21.77;85.53;102694.41;5251178;28;20046;-72
2023/05/30 08:46:42;;;;;;;12.68;4.20;;;;;;;21.42;90.13;102686.06;5240635;28;20549;-72
2023/05/30 08:49:18;;;;;;;17.20;5.00;;;;;;;21.41;96.35;102673.47;5241168;28;20500;-72
2023/05/30 08:51:50;;;;;;;15.38;4.85;;;;;;;21.68;98.95;102679.19;5240932;28;20031;-72
2023/05/30 08:54:23;;;;;;;14.35;5.00;;;;;;;21.70;100.00;102682.59;5240799;28;20016;-72
2023/05/30 08:57:18;;;;;;;15.05;5.32;;;;;;;22.02;100.00;102685.78;5240730;28;20020;-72
2023/05/30 08:59:49;;;;;;;20.92;5.53;;;;;;;22.01;98.86;102665.81;5240522;28;20090;-72
2023/05/30 09:02:21;;;;;;;16.05;5.53;;;;;;;21.95;98.42;102669.34;5241096;28;20074;-72
2023/05/30 09:04:53;;;;;;;19.40;5.22;;;;;;;22.25;96.39;102671.91;5240883;28;20016;-72
2023/05/30 09:07:25;;;;;;;13.10;4.78;;;;;;;22.43;92.86;102662.13;5240620;28;20028;-72
2023/05/30 09:09:58;;;;;;;17.25;4.68;;;;;;;22.30;93.83;102667.53;5241010;28;20020;-72
2023/05/30 09:12:29;;;;;;;19.70;5.28;;;;;;;22.34;94.42;102659.75;5240541;28;20021;-72
2023/05/30 09:14:59;;;;;;;14.65;5.38;;;;;;;22.60;89.77;102657.19;5240365;28;20048;-72
2023/05/30 09:17:30;;;;;;;15.05;4.75;;;;;;;22.29;92.62;102654.91;5250846;28;20067;-72
2023/05/30 09:20:01;;;;;;;13.93;4.93;;;;;;;22.13;99.88;102660.69;5250945;28;20039;-72
2023/05/30 09:22:31;;;;;;;21.77;6.13;;;;;;;22.02;99.50;102663.94;5229968;28;20069;-72
2023/05/30 09:25:03;;;;;;;13.88;5.32;;;;;;;22.33;97.79;102655.34;5240952;28;20394;-72
2023/05/30 09:27:35;;;;;;;9.65;5.40;;;;;;;22.44;96.53;102658.38;5249885;28;20066;-72
2023/05/30 09:30:07;;;;;;;16.75;6.13;;;;;;;22.51;93.21;102661.16;5264851;28;20100;-72
2023/05/30 09:32:38;;;;;;;18.25;5.57;;;;;;;22.20;92.38;102654.22;5242445;28;20076;-72
2023/05/30 09:35:10;;;;;;;15.98;5.65;;;;;;;22.10;90.22;102656.44;5255935;28;20024;-72
2023/05/30 09:37:43;;;;;;;13.50;5.80;;;;;;;21.72;95.13;102664.09;5247179;28;20389;-72
2023/05/30 09:40:15;;;;;;;15.35;5.22;;;;;;;22.16;98.85;102644.72;5247725;28;20568;-72
2023/05/30 09:42:54;;;;;;;14.85;6.07;;;;;;;22.20;99.41;102648.75;5244601;28;20021;-72
2023/05/30 09:45:25;;;;;;;13.73;5.70;;;;;;;22.37;96.36;102654.75;5244439;28;20057;-72
2023/05/30 09:47:55;;;;;;;12.88;5.80;;;;;;;22.40;93.00;102653.50;5243682;28;20482;-72
2023/05/30 09:50:26;;;;;;;15.55;5.90;;;;;;;22.12;99.10;102648.91;5244591;28;20397;-72
2023/05/30 09:52:59;;;;;;;14.75;6.28;;;;;;;22.15;99.58;102647.66;5250667;28;20039;-71
2023/05/30 09:55:30;;;;;;;14.98;6.22;;;;;;;22.14;96.55;102640.50;5249615;28;20107;-71
2023/05/30 09:58:02;;;;;;;13.88;5.95;;;;;;;22.01;97.90;102634.91;5251466;28;20599;-72
2023/05/30 10:00:33;;;;;;;11.25;5.13;;;;;;;21.96;92.69;102644.56;5248841;28;20077;-71
2023/05/30 10:03:04;;;;;;;15.15;6.28;;;;;;;21.93;95.39;102646.81;5243530;28;20020;-71
2023/05/30 10:05:36;;;;;;;16.27;6.57;;;;;;;22.09;90.92;102642.94;5244280;28;20031;-71
2023/05/30 10:08:07;;;;;;;13.88;5.32;;;;;;;22.03;94.11;102635.56;5243149;28;20021;-71
2023/05/30 10:10:39;;;;;;;15.90;5.97;;;;;;;22.16;100.00;102643.88;5225969;28;20161;-72
2023/05/30 10:13:10;;;;;;;14.38;5.90;;;;;;;22.16;91.60;102649.34;5244235;28;20020;-71
2023/05/30 10:15:40;;;;;;;16.13;6.20;;;;;;;22.21;96.46;102633.19;5243247;28;20020;-71
2023/05/30 10:18:16;;;;;;;17.55;6.13;;;;;;;22.38;96.51;102641.91;5244131;28;20599;-71
2023/05/30 10:20:47;;;;;;;18.13;6.57;;;;;;;22.23;96.38;102629.19;5242412;28;20084;-71
2023/05/30 10:23:19;;;;;;;14.15;5.93;;;;;;;22.21;94.12;102631.31;5239269;28;20024;-71
2023/05/30 10:25:54;;;;;;;12.48;5.93;;;;;;;22.10;91.20;102623.63;5240020;28;20119;-72
2023/05/30 10:28:28;;;;;;;;;;;;;;;21.62;91.79;102630.81;5243632;28;20021;-71
2023/05/30 10:30:59;;;;;;;20.48;6.38;;;;;;;21.31;98.63;102623.81;5240761;28;20277;-71
2023/05/30 10:33:36;;;;;;;16.60;6.15;;;;;;;21.23;98.05;102621.16;5243211;28;20138;-71
2023/05/30 10:36:07;;;;;;;14.80;6.28;;;;;;;21.41;100.00;102624.31;5252082;28;20492;-72
2023/05/30 10:38:51;;;;;;;15.40;6.30;;;;;;;21.72;100.00;102614.94;5239007;28;20407;-71
2023/05/30 10:41:32;;;;;;;17.10;6.97;;;;;;;21.81;100.00;102619.22;5239639;28;20086;-72
2023/05/30 10:44:14;;;;;;;15.38;5.80;;;;;;;21.92;100.00;102615.94;5239028;28;20035;-71
2023/05/30 10:46:57;;;;;;;11.63;6.03;;;;;;;21.88;97.67;102617.38;5246212;28;20021;-72
2023/05/30 10:49:30;;;;;;;16.00;6.40;;;;;;;21.89;99.93;102610.03;5242716;28;20013;-72
2023/05/30 10:52:03;;;;;;;16.13;7.07;;;;;;;22.03;100.00;102609.06;5242074;28;20028;-72
2023/05/30 10:54:36;;;;;;;16.40;6.68;;;;;;;21.96;97.36;102611.75;5242416;28;20013;-71
2023/05/30 10:57:27;;;;;;;15.32;6.90;;;;;;;21.74;98.06;102610.13;5245034;28;20043;-72
2023/05/30 11:00:09;;;;;;;15.75;7.15;;;;;;;21.60;100.00;102609.16;5241423;28;20028;-72
2023/05/30 11:02:40;;;;;;;21.30;6.97;;;;;;;21.70;100.00;102601.47;5237484;28;20085;-71
2023/05/30 11:05:10;;;;;;;26.83;7.38;;;;;;;21.98;95.89;102596.00;5239739;28;20032;-71
2023/05/30 11:07:41;;;;;;;19.30;7.43;;;;;;;21.76;100.00;102593.53;5239920;28;20028;-71
2023/05/30 11:10:13;;;;;;;19.85;7.55;;;;;;;21.65;100.00;102600.38;5238501;28;20030;-72
2023/05/30 11:12:45;;;;;;;14.65;5.95;;;;;;;21.70;100.00;102595.19;5234867;28;20025;-71
2023/05/30 11:15:16;;;;;;;15.52;6.70;;;;;;;21.49;100.00;102593.31;5238878;28;20016;-71
2023/05/30 11:17:52;;;;;;;16.30;6.75;;;;;;;21.67;100.00;102585.47;5240133;28;20028;-72
2023/05/30 11:20:22;;;;;;;16.20;7.20;;;;;;;21.85;100.00;102589.63;5236166;28;20021;-72
2023/05/30 11:23:03;;;;;;;12.73;6.72;;;;;;;21.98;100.00;102582.34;5221531;28;20371;-72
2023/05/30 11:25:34;;;;;;;14.55;7.60;;;;;;;21.97;97.71;102588.84;5244090;28;20031;-71
2023/05/30 11:28:04;;;;;;;17.10;8.05;;;;;;;21.91;94.56;102581.47;5244180;28;20016;-72
2023/05/30 11:30:37;;;;;;;17.50;7.25;;;;;;;22.07;100.00;102572.09;5243981;28;20454;-72
2023/05/30 11:33:10;;;;;;;15.55;7.80;;;;;;;22.27;100.00;102585.91;5244731;28;20470;-71
2023/05/30 11:35:48;;;;;;;19.50;7.50;;;;;;;22.53;100.00;102570.69;5243353;28;20528;-72
2023/05/30 11:38:21;;;;;;;17.80;7.25;;;;;;;22.67;93.51;102569.69;5244142;28;20406;-72